Time;durP1;ratioP1;P1;durP2;ratioP2;P2;SDS_P1;SDS_P2;PMS_P1;PMS_P2;Temp;Humidity;BMP_temperature;BMP_pressure;BME280_temperature;BME280_humidity;BME280_pressure;Samples;Min_cycle;Max_cycle;Signal;HPM_P1;HPM_P2
2022/09/03 00:00:08;;;;;;;28.10;13.50;;;;;;;8.21;75.06;101130.11;83733;1344;24786;-74
2022/09/03 00:02:44;;;;;;;27.50;11.90;;;;;;;8.19;75.17;101134.50;83767;1341;24654;-73
2022/09/03 00:04:58;;;;;;;30.40;10.70;;;;;;;8.16;75.01;101133.85;83655;1344;22691;-74
2022/09/03 00:07:12;;;;;;;21.00;9.90;;;;;;;8.13;75.15;101136.50;83704;1342;23021;-73
2022/09/03 00:09:25;;;;;;;21.00;9.90;;;;;;;8.09;75.27;101133.44;83748;1346;22704;-71
2022/09/03 00:11:36;;;;;;;26.30;10.30;;;;;;;8.05;75.13;101131.41;83684;1342;24022;-72
2022/09/03 00:13:51;;;;;;;22.50;10.70;;;;;;;8.04;75.31;101137.16;83704;1343;22702;-72
2022/09/03 00:16:00;;;;;;;24.00;11.50;;;;;;;8.04;75.56;101137.34;83701;1342;22724;-72
2022/09/03 00:18:11;;;;;;;26.00;11.50;;;;;;;8.02;75.44;101134.40;83702;1343;22599;-73
2022/09/03 00:20:22;;;;;;;;;;;;;;;8.01;75.39;101136.67;83690;1343;23093;-72
2022/09/03 00:22:36;;;;;;;25.10;11.90;;;;;;;7.96;75.65;101134.32;83771;1338;22632;-72
2022/09/03 00:24:46;;;;;;;25.40;10.50;;;;;;;7.95;75.59;101132.43;83794;1341;22650;-72
2022/09/03 00:26:57;;;;;;;27.40;11.20;;;;;;;7.94;75.64;101135.58;83589;1343;24204;-73
2022/09/03 00:29:10;;;;;;;24.50;11.80;;;;;;;7.94;75.63;101131.58;83783;1342;24276;-74
2022/09/03 00:31:23;;;;;;;29.60;12.40;;;;;;;7.92;75.67;101130.38;83742;1343;22635;-73
2022/09/03 00:33:33;;;;;;;28.00;12.70;;;;;;;7.92;75.71;101128.14;83765;1344;22751;-72
2022/09/03 00:35:46;;;;;;;33.50;14.10;;;;;;;7.92;75.39;101129.52;83795;1338;22611;-73
2022/09/03 00:37:57;;;;;;;33.20;13.80;;;;;;;7.91;75.80;101133.70;83797;1343;22622;-73
2022/09/03 00:40:09;;;;;;;35.00;13.30;;;;;;;7.92;75.70;101130.73;83725;1339;22635;-74
2022/09/03 00:42:33;;;;;;;34.20;13.50;;;;;;;7.91;75.73;101133.88;83823;1343;22593;-75
2022/09/03 00:44:56;;;;;;;29.50;11.90;;;;;;;7.90;75.57;101131.12;83817;1343;24278;-72
2022/09/03 00:47:09;;;;;;;29.30;11.30;;;;;;;7.89;75.62;101135.65;83780;1342;22777;-71
2022/09/03 00:49:34;;;;;;;29.80;12.00;;;;;;;7.86;75.63;101132.57;83769;1342;22604;-75
2022/09/03 00:51:48;;;;;;;26.80;12.80;;;;;;;7.85;75.49;101131.20;83757;1344;22629;-74
2022/09/03 00:54:01;;;;;;;27.80;11.60;;;;;;;7.84;75.65;101135.04;83719;1338;22635;-72
2022/09/03 00:56:16;;;;;;;26.20;11.60;;;;;;;7.82;75.78;101137.31;83753;1342;22822;-71
2022/09/03 00:58:47;;;;;;;26.80;12.10;;;;;;;7.80;75.85;101139.95;83814;1341;22765;-73
2022/09/03 01:00:56;;;;;;;27.20;11.00;;;;;;;7.78;75.73;101137.72;83778;1343;24308;-72
2022/09/03 01:03:09;;;;;;;25.20;11.40;;;;;;;7.76;75.73;101141.73;83762;1343;22627;-73
2022/09/03 01:05:30;;;;;;;24.10;10.90;;;;;;;7.75;75.80;101145.58;83810;1344;22626;-74
2022/09/03 01:07:47;;;;;;;33.10;11.40;;;;;;;7.76;75.88;101144.34;83816;1344;22600;-75
2022/09/03 01:10:00;;;;;;;20.70;10.40;;;;;;;7.81;75.88;101144.10;83785;1343;23398;-72
2022/09/03 01:12:14;;;;;;;22.50;9.70;;;;;;;7.87;75.82;101145.06;83816;1343;22729;-72
2022/09/03 01:14:31;;;;;;;19.40;8.80;;;;;;;7.92;75.82;101137.52;83785;1337;22780;-72
2022/09/03 01:16:44;;;;;;;19.60;9.40;;;;;;;7.96;75.81;101137.95;83809;1342;22686;-72
2022/09/03 01:19:00;;;;;;;19.50;8.20;;;;;;;7.98;75.37;101139.16;83828;1343;22722;-73
2022/09/03 01:21:37;;;;;;;16.10;8.10;;;;;;;7.97;75.50;101137.80;83793;1341;22726;-72
2022/09/03 01:24:28;;;;;;;15.10;6.50;;;;;;;7.96;75.34;101137.09;83255;1338;758463;-72
2022/09/03 01:27:21;;;;;;;13.00;6.00;;;;;;;7.99;75.33;101137.24;83684;1342;22758;-73
2022/09/03 01:29:34;;;;;;;10.40;5.60;;;;;;;7.96;75.14;101139.54;83850;1342;24322;-73
2022/09/03 01:31:49;;;;;;;11.50;5.30;;;;;;;7.92;75.30;101142.55;83819;1343;22695;-75
2022/09/03 01:34:06;;;;;;;10.40;4.50;;;;;;;7.91;75.08;101143.61;83798;1342;22618;-73
2022/09/03 01:36:17;;;;;;;7.80;3.90;;;;;;;7.92;75.15;101142.71;83856;1341;22622;-73
2022/09/03 01:38:30;;;;;;;8.50;4.60;;;;;;;7.96;75.16;101145.80;83889;1342;22613;-72
2022/09/03 01:40:46;;;;;;;12.30;3.40;;;;;;;7.98;75.16;101142.45;83759;1342;22810;-71
2022/09/03 01:43:08;;;;;;;6.90;3.70;;;;;;;7.99;75.09;101136.04;83831;1344;25187;-73
2022/09/03 01:45:47;;;;;;;8.80;3.60;;;;;;;8.00;75.04;101138.77;83835;1342;22615;-75
2022/09/03 01:48:07;;;;;;;5.50;3.10;;;;;;;8.01;75.10;101130.23;83848;1335;22588;-73
2022/09/03 01:50:37;;;;;;;5.90;2.60;;;;;;;8.05;75.04;101132.11;83794;1343;25378;-75
2022/09/03 01:52:51;;;;;;;5.10;3.00;;;;;;;8.07;75.00;101137.45;83815;1341;23023;-75
2022/09/03 01:55:10;;;;;;;5.00;2.60;;;;;;;8.09;74.91;101137.78;83799;1341;25291;-74
2022/09/03 01:57:41;;;;;;;3.00;2.40;;;;;;;8.11;75.19;101136.35;83789;1342;24138;-74
2022/09/03 01:59:51;;;;;;;4.80;2.80;;;;;;;8.12;74.91;101135.11;83840;1344;22675;-72
2022/09/03 02:02:05;;;;;;;6.70;3.10;;;;;;;8.12;74.81;101128.52;83802;1338;22868;-72
2022/09/03 02:04:23;;;;;;;5.00;3.10;;;;;;;8.13;74.66;101125.39;83806;1337;22866;-72
2022/09/03 02:06:32;;;;;;;4.00;2.60;;;;;;;8.13;74.54;101124.34;83775;1342;25532;-70
2022/09/03 02:08:43;;;;;;;8.90;2.70;;;;;;;8.13;74.35;101123.65;83800;1341;22693;-72
2022/09/03 02:10:53;;;;;;;4.20;2.80;;;;;;;8.13;74.48;101123.48;83825;1341;22662;-72
2022/09/03 02:13:07;;;;;;;5.00;2.70;;;;;;;8.12;74.39;101121.04;83818;1343;22604;-73
2022/09/03 02:15:18;;;;;;;5.20;2.70;;;;;;;8.12;74.42;101121.73;83817;1341;22615;-73
2022/09/03 02:17:27;;;;;;;6.90;2.40;;;;;;;8.10;74.25;101118.64;83793;1342;22731;-74
2022/09/03 02:19:36;;;;;;;5.30;3.30;;;;;;;8.07;74.37;101116.96;83849;1343;22622;-73
2022/09/03 02:21:47;;;;;;;4.00;2.60;;;;;;;8.05;74.36;101115.94;83836;1342;22595;-73
2022/09/03 02:23:56;;;;;;;5.00;3.00;;;;;;;8.03;74.17;101111.46;83820;1342;22831;-74
2022/09/03 02:26:06;;;;;;;5.00;2.60;;;;;;;8.00;74.31;101114.12;83808;1338;22632;-73
2022/09/03 02:28:15;;;;;;;5.00;2.90;;;;;;;7.94;74.41;101113.67;83832;1338;22598;-74
2022/09/03 02:30:42;;;;;;;6.80;3.00;;;;;;;7.89;74.28;101116.37;83775;1342;22661;-73
2022/09/03 02:32:51;;;;;;;3.70;2.80;;;;;;;7.85;74.38;101115.23;83723;1342;23997;-74
2022/09/03 02:35:00;;;;;;;7.60;3.60;;;;;;;7.81;74.35;101119.79;83829;1343;22630;-74
2022/09/03 02:37:18;;;;;;;9.30;4.00;;;;;;;7.78;74.41;101123.30;83942;1336;24356;-74
2022/09/03 02:39:27;;;;;;;7.70;4.20;;;;;;;7.73;74.51;101125.11;83952;1339;22666;-72
2022/09/03 02:41:37;;;;;;;8.40;4.00;;;;;;;7.72;74.76;101126.34;83780;1343;23021;-72
2022/09/03 02:43:48;;;;;;;9.40;4.30;;;;;;;7.72;74.87;101122.52;83933;1341;25574;-72
2022/09/03 02:46:00;;;;;;;6.50;3.70;;;;;;;7.71;74.89;101120.80;83921;1341;22606;-74
2022/09/03 02:48:09;;;;;;;9.50;3.80;;;;;;;7.70;75.01;101122.20;83794;1341;22618;-75
2022/09/03 02:50:18;;;;;;;6.30;3.70;;;;;;;7.70;74.93;101118.20;83795;1341;22629;-74
2022/09/03 02:52:27;;;;;;;6.00;3.50;;;;;;;7.69;74.90;101113.35;83941;1341;22707;-74
2022/09/03 02:54:38;;;;;;;7.30;3.70;;;;;;;7.68;74.98;101117.71;83927;1342;22604;-74
2022/09/03 02:56:48;;;;;;;6.70;3.50;;;;;;;7.66;74.86;101120.70;83860;1340;22777;-73
2022/09/03 02:58:57;;;;;;;7.70;3.30;;;;;;;7.63;74.89;101121.61;83731;1342;24025;-73
2022/09/03 03:01:06;;;;;;;4.40;3.20;;;;;;;7.58;75.17;101117.85;83783;1335;22681;-74
2022/09/03 03:03:15;;;;;;;7.30;3.60;;;;;;;7.54;75.11;101112.52;83849;1341;25516;-74
2022/09/03 03:05:27;;;;;;;9.20;4.10;;;;;;;7.49;74.95;101109.65;83851;1340;22736;-72
2022/09/03 03:07:37;;;;;;;14.10;4.60;;;;;;;7.44;75.21;101110.39;83796;1342;22617;-72
2022/09/03 03:09:46;;;;;;;12.90;5.00;;;;;;;7.39;75.45;101105.95;83784;1340;22828;-72
2022/09/03 03:11:55;;;;;;;10.40;5.30;;;;;;;7.34;75.36;101108.98;83817;1341;22617;-72
2022/09/03 03:14:04;;;;;;;11.80;6.10;;;;;;;7.28;75.31;101112.35;83837;1340;23239;-72
2022/09/03 03:16:13;;;;;;;11.40;4.40;;;;;;;7.24;75.46;101116.04;83792;1341;22676;-72
2022/09/03 03:18:22;;;;;;;8.70;4.40;;;;;;;7.20;75.48;101120.77;83787;1342;22596;-72
2022/09/03 03:20:31;;;;;;;14.90;5.40;;;;;;;7.17;75.78;101118.04;83806;1342;24259;-71
2022/09/03 03:22:40;;;;;;;13.20;6.00;;;;;;;7.14;76.08;101121.20;83700;1344;22623;-71
2022/09/03 03:24:49;;;;;;;10.70;5.70;;;;;;;7.11;75.96;101121.39;83807;1341;24296;-74
2022/09/03 03:27:00;;;;;;;14.90;5.20;;;;;;;7.07;76.05;101121.98;83810;1342;22689;-74
2022/09/03 03:29:09;;;;;;;25.50;6.20;;;;;;;7.02;76.14;101126.20;83808;1342;23273;-73
2022/09/03 03:31:20;;;;;;;30.20;6.20;;;;;;;6.98;76.15;101123.48;83811;1343;22645;-74
2022/09/03 03:33:29;;;;;;;22.30;5.80;;;;;;;6.94;76.28;101124.02;83786;1340;22615;-74
2022/09/03 03:35:39;;;;;;;13.50;6.10;;;;;;;6.91;76.31;101129.77;83790;1342;22618;-75
2022/09/03 03:37:52;;;;;;;14.20;6.10;;;;;;;6.89;76.53;101131.88;83804;1338;22709;-78
2022/09/03 03:40:01;;;;;;;7.90;4.90;;;;;;;6.87;76.50;101136.42;83745;1339;22643;-74
2022/09/03 03:42:10;;;;;;;12.30;5.10;;;;;;;6.84;76.55;101134.55;83820;1338;22592;-75
2022/09/03 03:44:20;;;;;;;18.10;6.80;;;;;;;6.82;76.89;101134.38;83819;1341;24660;-73
2022/09/03 03:46:32;;;;;;;17.60;6.40;;;;;;;6.82;76.72;101132.48;83742;1342;22887;-74
2022/09/03 03:48:41;;;;;;;33.70;7.40;;;;;;;6.82;77.04;101131.96;83738;1343;25072;-73
2022/09/03 03:50:52;;;;;;;25.80;8.00;;;;;;;6.81;76.98;101136.31;83862;1340;22707;-73
2022/09/03 03:53:04;;;;;;;35.10;11.10;;;;;;;6.80;77.15;101138.21;83849;1343;24273;-73
2022/09/03 03:55:13;;;;;;;32.90;10.80;;;;;;;6.79;77.16;101138.41;83857;1341;22600;-74
2022/09/03 03:57:23;;;;;;;29.30;10.30;;;;;;;6.78;77.26;101138.41;83822;1342;22628;-74
2022/09/03 03:59:32;;;;;;;36.60;9.70;;;;;;;6.78;77.41;101139.80;83833;1343;26245;-74
2022/09/03 04:01:41;;;;;;;43.70;10.40;;;;;;;6.78;77.31;101140.49;83825;1343;25626;-74
2022/09/03 04:03:50;;;;;;;28.90;9.80;;;;;;;6.78;77.41;101141.54;83755;1343;22750;-73
2022/09/03 04:06:01;;;;;;;33.60;8.80;;;;;;;6.77;77.56;101145.71;83739;1343;22724;-74
2022/09/03 04:08:10;;;;;;;27.30;9.60;;;;;;;6.77;77.78;101143.64;83805;1342;22715;-74
2022/09/03 04:10:19;;;;;;;39.10;9.50;;;;;;;6.78;77.76;101143.79;83840;1342;24274;-73
2022/09/03 04:12:28;;;;;;;29.80;10.00;;;;;;;6.78;77.87;101141.53;83810;1342;22564;-73
2022/09/03 04:14:37;;;;;;;24.00;8.20;;;;;;;6.78;77.86;101137.55;83797;1343;22821;-73
2022/09/03 04:16:46;;;;;;;28.30;8.10;;;;;;;6.79;77.87;101141.17;83773;1343;24187;-75
2022/09/03 04:18:56;;;;;;;30.10;6.90;;;;;;;6.80;78.08;101143.42;83789;1343;22639;-75
2022/09/03 04:21:06;;;;;;;27.00;6.40;;;;;;;6.80;77.98;101145.16;83807;1343;25387;-73
2022/09/03 04:23:13;;;;;;;;;;;;;;;6.83;78.02;101146.34;83821;1344;22573;-74
2022/09/03 04:25:22;;;;;;;27.90;7.00;;;;;;;6.83;78.24;101147.20;83769;1342;22599;-74
2022/09/03 04:27:31;;;;;;;28.40;7.30;;;;;;;6.86;78.19;101148.58;83796;1340;24311;-71
2022/09/03 04:29:40;;;;;;;39.20;8.00;;;;;;;6.89;78.26;101149.58;83825;1341;22605;-72
2022/09/03 04:34:12;;;;;;;31.30;9.70;;;;;;;7.02;78.66;101152.73;83851;1343;24125;-75
2022/09/03 04:36:22;;;;;;;47.00;12.10;;;;;;;7.09;78.53;101151.44;83853;1340;22613;-73
2022/09/03 04:38:33;;;;;;;52.70;11.20;;;;;;;7.17;78.59;101146.67;83797;1343;25520;-77
2022/09/03 04:40:42;;;;;;;43.00;11.30;;;;;;;7.38;78.91;101146.58;83801;1343;25686;-74
2022/09/03 04:42:51;;;;;;;61.20;12.30;;;;;;;7.66;79.60;101148.84;83742;1338;22688;-74
2022/09/03 04:45:01;;;;;;;54.90;13.00;;;;;;;7.82;79.28;101147.73;83775;1343;22675;-74
2022/09/03 04:47:10;;;;;;;48.10;12.50;;;;;;;7.90;78.40;101145.54;83767;1342;22625;-74
2022/09/03 04:49:20;;;;;;;44.10;11.00;;;;;;;7.97;78.05;101152.21;83797;1343;25444;-72
2022/09/03 04:51:30;;;;;;;32.00;8.50;;;;;;;8.05;77.84;101149.48;83759;1346;22598;-74
2022/09/03 04:53:40;;;;;;;39.40;9.10;;;;;;;8.12;77.64;101151.47;83795;1343;22615;-73
2022/09/03 04:55:50;;;;;;;48.70;8.30;;;;;;;8.21;77.50;101150.11;83785;1344;22643;-73
2022/09/03 04:57:58;;;;;;;40.70;8.80;;;;;;;8.30;77.20;101151.88;83769;1343;22652;-73
2022/09/03 05:00:12;;;;;;;25.20;8.20;;;;;;;8.39;77.10;101155.92;83823;1343;24265;-74
2022/09/03 05:02:21;;;;;;;22.90;6.90;;;;;;;8.48;76.78;101155.61;83831;1343;22590;-74
2022/09/03 05:04:30;;;;;;;19.10;7.50;;;;;;;8.57;76.58;101155.27;83816;1342;22640;-73
2022/09/03 05:06:42;;;;;;;17.60;7.20;;;;;;;8.66;76.28;101157.73;83737;1342;22600;-74
2022/09/03 05:08:54;;;;;;;16.70;6.90;;;;;;;8.75;75.97;101160.36;83769;1342;22593;-74
2022/09/03 05:11:03;;;;;;;7.90;4.10;;;;;;;8.85;75.42;101164.89;83802;1339;22608;-74
2022/09/03 05:13:12;;;;;;;13.40;4.40;;;;;;;8.94;75.20;101165.05;83802;1342;24437;-74
2022/09/03 05:15:21;;;;;;;5.90;3.20;;;;;;;9.04;75.07;101171.67;83781;1341;22875;-73
2022/09/03 05:17:30;;;;;;;5.30;3.40;;;;;;;9.14;74.82;101171.28;83807;1343;22623;-74
2022/09/03 05:19:40;;;;;;;9.20;3.30;;;;;;;9.24;74.52;101169.53;83831;1342;22629;-72
2022/09/03 05:21:49;;;;;;;7.90;3.40;;;;;;;9.33;74.64;101171.63;83784;1341;22948;-74
2022/09/03 05:23:59;;;;;;;10.40;3.60;;;;;;;9.46;74.39;101174.66;83783;1343;22777;-73
2022/09/03 05:26:10;;;;;;;8.10;4.80;;;;;;;9.62;74.52;101166.14;83876;1342;22622;-73
2022/09/03 05:28:19;;;;;;;8.60;5.10;;;;;;;10.09;76.30;101166.66;83798;1344;26084;-73
2022/09/03 05:30:28;;;;;;;10.80;5.00;;;;;;;11.17;76.78;101169.52;83835;1341;22697;-75
2022/09/03 05:32:38;;;;;;;7.70;5.30;;;;;;;12.59;74.42;101159.91;83858;1338;22651;-75
2022/09/03 05:34:46;;;;;;;17.00;6.60;;;;;;;14.03;71.18;101156.44;83838;1342;25158;-73
2022/09/03 05:36:57;;;;;;;22.80;9.50;;;;;;;15.26;66.35;101156.14;83820;1339;22677;-71
2022/09/03 05:39:06;;;;;;;39.30;18.40;;;;;;;16.40;62.70;101152.39;83840;1341;22627;-73
2022/09/03 05:41:16;;;;;;;26.40;11.70;;;;;;;17.40;58.85;101149.50;83774;1341;22632;-74
2022/09/03 05:43:24;;;;;;;;;;;;;;;18.23;54.94;101145.95;83842;1343;22595;-74
2022/09/03 05:45:33;;;;;;;27.80;8.20;;;;;;;18.91;52.93;101147.95;83798;1342;26766;-73
2022/09/03 05:47:42;;;;;;;13.80;6.70;;;;;;;19.70;52.03;101144.48;83804;1341;22639;-74
2022/09/03 05:49:50;;;;;;;15.00;5.90;;;;;;;20.51;49.47;101138.48;83807;1342;22726;-75
2022/09/03 05:51:59;;;;;;;10.70;5.40;;;;;;;21.18;47.39;101138.31;83756;1342;24265;-74
2022/09/03 05:54:08;;;;;;;8.60;4.50;;;;;;;21.29;45.64;101136.53;83755;1343;25330;-74
2022/09/03 05:56:18;;;;;;;37.70;12.80;;;;;;;20.99;45.13;101133.64;83762;1339;22939;-73
2022/09/03 05:58:25;;;;;;;;;;;;;;;20.79;45.10;101129.91;83795;1343;22585;-73
2022/09/03 06:00:36;;;;;;;31.60;10.90;;;;;;;21.03;45.05;101132.96;83809;1342;25538;-75
2022/09/03 06:02:46;;;;;;;27.80;9.30;;;;;;;21.61;43.64;101128.55;83789;1342;25925;-74
2022/09/03 06:04:56;;;;;;;30.10;9.10;;;;;;;22.24;42.42;101124.08;83811;1342;23987;-74
2022/09/03 06:07:06;;;;;;;29.00;9.40;;;;;;;22.88;41.40;101127.02;83785;1341;22748;-74
2022/09/03 06:09:16;;;;;;;45.60;9.80;;;;;;;23.50;40.41;101134.61;83834;1342;22590;-73
2022/09/03 06:11:26;;;;;;;42.70;10.90;;;;;;;24.20;38.62;101131.09;83800;1339;25592;-73
2022/09/03 06:13:38;;;;;;;55.70;11.00;;;;;;;24.72;37.73;101131.34;83842;1341;23949;-73
2022/09/03 06:15:49;;;;;;;51.30;11.60;;;;;;;25.18;35.90;101133.98;83832;1344;24055;-74
2022/09/03 06:17:57;;;;;;;64.60;14.30;;;;;;;25.47;35.77;101132.69;83839;1340;22651;-74
2022/09/03 06:20:09;;;;;;;82.80;18.70;;;;;;;25.41;34.82;101131.76;83859;1344;22615;-80
2022/09/03 06:22:18;;;;;;;59.30;16.50;;;;;;;25.58;34.47;101129.16;83842;1338;22607;-73
2022/09/03 06:24:28;;;;;;;82.80;15.70;;;;;;;25.77;34.07;101127.05;83819;1341;22603;-74
2022/09/03 06:26:37;;;;;;;48.50;14.00;;;;;;;25.79;33.87;101124.29;83845;1344;23955;-74
2022/09/03 06:28:47;;;;;;;66.60;19.00;;;;;;;25.48;34.02;101124.43;83841;1344;25525;-73
2022/09/03 06:31:01;;;;;;;70.50;19.20;;;;;;;24.76;33.77;101124.75;83813;1342;22599;-75
2022/09/03 06:33:10;;;;;;;67.40;23.30;;;;;;;24.02;33.94;101133.08;83826;1341;22715;-73
2022/09/03 06:35:19;;;;;;;63.70;24.60;;;;;;;23.32;34.87;101131.09;83793;1342;25304;-72
2022/09/03 06:37:28;;;;;;;57.60;24.20;;;;;;;22.70;35.61;101136.26;83816;1340;22597;-76
2022/09/03 06:39:37;;;;;;;51.50;20.40;;;;;;;22.25;36.31;101138.94;83823;1341;22607;-73
2022/09/03 06:41:50;;;;;;;36.40;17.30;;;;;;;21.82;36.45;101141.56;83804;1342;22699;-72
2022/09/03 06:44:02;;;;;;;44.80;14.30;;;;;;;21.41;37.05;101138.48;83803;1341;23895;-74
2022/09/03 06:46:13;;;;;;;44.60;16.80;;;;;;;20.98;37.65;101139.70;83807;1341;23259;-73
2022/09/03 06:48:22;;;;;;;46.40;16.50;;;;;;;20.59;38.08;101140.42;83804;1344;23255;-73
2022/09/03 06:50:30;;;;;;;38.40;16.30;;;;;;;20.18;38.71;101142.11;83838;1341;24265;-74
2022/09/03 06:52:39;;;;;;;44.30;14.70;;;;;;;19.81;39.45;101143.11;83855;1338;22703;-73
2022/09/03 06:54:49;;;;;;;37.70;10.40;;;;;;;19.53;40.03;101142.02;83836;1340;22628;-73
2022/09/03 06:56:58;;;;;;;52.50;11.70;;;;;;;19.26;40.47;101140.54;83821;1341;24203;-75
2022/09/03 06:59:09;;;;;;;31.90;9.20;;;;;;;19.02;41.03;101138.32;83804;1340;22896;-74
2022/09/03 07:01:24;;;;;;;56.50;12.90;;;;;;;18.87;41.38;101136.20;83806;1341;24260;-73
2022/09/03 07:03:32;;;;;;;76.10;16.60;;;;;;;18.78;41.62;101139.04;83818;1341;22699;-74
2022/09/03 07:05:44;;;;;;;57.00;16.10;;;;;;;18.75;41.72;101140.08;83828;1344;22613;-72
2022/09/03 07:07:53;;;;;;;87.80;26.70;;;;;;;18.85;41.53;101138.61;83840;1342;22643;-73
2022/09/03 07:10:04;;;;;;;85.90;28.30;;;;;;;19.00;41.70;101140.38;83851;1343;22671;-73
2022/09/03 07:12:17;;;;;;;81.80;28.90;;;;;;;19.23;41.58;101140.35;83830;1341;22881;-73
2022/09/03 07:14:27;;;;;;;88.10;27.20;;;;;;;19.46;42.33;101139.80;83889;1342;22636;-76
2022/09/03 07:16:42;;;;;;;53.10;20.50;;;;;;;19.76;42.32;101138.85;83827;1341;22624;-73
2022/09/03 07:18:53;;;;;;;56.90;18.90;;;;;;;20.00;41.09;101138.70;83819;1343;25485;-72
2022/09/03 07:21:07;;;;;;;40.60;14.70;;;;;;;20.21;40.84;101136.08;83808;1346;22611;-76
2022/09/03 07:23:17;;;;;;;50.90;18.30;;;;;;;20.42;39.84;101139.61;83815;1340;22866;-74
2022/09/03 07:25:29;;;;;;;57.80;22.10;;;;;;;20.56;39.64;101142.62;83838;1341;22627;-73
2022/09/03 07:27:39;;;;;;;54.00;20.60;;;;;;;20.59;40.33;101140.30;83811;1343;24301;-72
2022/09/03 07:29:53;;;;;;;64.40;23.10;;;;;;;20.77;40.63;101144.05;83842;1345;22613;-72
2022/09/03 07:32:07;;;;;;;57.00;21.30;;;;;;;20.94;39.96;101141.64;83750;1344;24331;-73
2022/09/03 07:34:16;;;;;;;38.50;15.50;;;;;;;20.97;39.47;101142.06;83857;1340;22634;-73
2022/09/03 07:36:31;;;;;;;51.00;13.60;;;;;;;20.96;38.96;101145.39;83804;1338;22688;-73
2022/09/03 07:38:44;;;;;;;34.60;11.40;;;;;;;20.95;39.17;101145.98;83817;1341;22664;-74
2022/09/03 07:41:07;;;;;;;37.40;9.90;;;;;;;21.03;38.96;101152.35;83841;1340;24213;-77
2022/09/03 07:43:20;;;;;;;18.00;8.30;;;;;;;21.05;39.24;101152.02;83848;1340;25448;-77
2022/09/03 07:45:34;;;;;;;21.20;6.80;;;;;;;21.30;38.43;101151.72;83906;1343;23728;-77
2022/09/03 07:47:54;;;;;;;23.70;7.90;;;;;;;21.58;38.28;101143.15;83826;1341;22604;-77
2022/09/03 07:50:06;;;;;;;24.30;7.20;;;;;;;22.12;37.74;101144.89;83837;1343;22722;-76
2022/09/03 07:52:17;;;;;;;11.40;3.90;;;;;;;22.86;37.15;101141.10;83785;1344;22891;-76
2022/09/03 07:54:26;;;;;;;14.40;7.10;;;;;;;23.84;36.24;101142.08;83853;1341;22649;-77
2022/09/03 07:56:37;;;;;;;22.80;7.80;;;;;;;24.73;35.14;101138.80;83876;1340;22689;-75
2022/09/03 07:58:47;;;;;;;12.90;4.20;;;;;;;25.60;34.22;101139.97;83853;1340;22656;-75
2022/09/03 08:00:57;;;;;;;6.10;3.00;;;;;;;26.43;32.13;101134.73;83819;1343;25291;-77
2022/09/03 08:03:07;;;;;;;6.40;2.10;;;;;;;27.19;30.30;101135.63;83824;1342;22612;-76
2022/09/03 08:05:18;;;;;;;5.70;2.70;;;;;;;27.84;29.63;101137.41;83793;1343;22615;-77
2022/09/03 08:07:26;;;;;;;4.20;1.80;;;;;;;28.47;27.50;101135.89;83790;1343;22597;-76
2022/09/03 08:09:36;;;;;;;8.90;2.30;;;;;;;28.95;27.50;101135.14;83812;1342;24602;-77
2022/09/03 08:11:46;;;;;;;8.00;2.90;;;;;;;29.49;26.67;101134.66;83808;1342;22612;-76
2022/09/03 08:14:01;;;;;;;4.30;2.40;;;;;;;29.96;25.63;101138.63;83782;1344;22724;-76
2022/09/03 08:16:11;;;;;;;5.90;2.30;;;;;;;30.36;25.04;101133.56;83781;1338;22608;-76
2022/09/03 08:18:21;;;;;;;9.40;2.20;;;;;;;30.80;24.91;101129.05;83802;1341;22628;-77
2022/09/03 08:20:32;;;;;;;6.60;1.90;;;;;;;31.18;23.72;101126.05;83813;1344;25459;-76
2022/09/03 08:22:42;;;;;;;6.50;2.20;;;;;;;31.22;23.09;101123.61;83836;1343;24072;-75
2022/09/03 08:24:54;;;;;;;6.60;1.70;;;;;;;31.57;23.97;101129.86;83859;1343;22645;-78
2022/09/03 08:27:06;;;;;;;5.10;1.90;;;;;;;31.96;22.25;101128.83;83797;1342;22651;-75
2022/09/03 08:29:17;;;;;;;5.70;2.20;;;;;;;32.24;22.33;101132.72;83823;1341;22620;-75
2022/09/03 08:31:27;;;;;;;3.70;1.80;;;;;;;32.61;21.05;101128.32;83793;1344;22599;-76
2022/09/03 08:33:39;;;;;;;2.80;1.30;;;;;;;32.82;20.60;101130.86;83815;1343;25419;-76
2022/09/03 08:35:58;;;;;;;2.40;1.70;;;;;;;33.03;19.91;101126.02;83848;1343;22631;-76
2022/09/03 08:38:08;;;;;;;3.10;1.50;;;;;;;33.28;20.24;101121.33;83741;1344;23965;-75
2022/09/03 08:40:17;;;;;;;4.30;1.40;;;;;;;33.60;19.85;101123.75;83840;1344;22600;-74
2022/09/03 08:42:33;;;;;;;4.90;1.80;;;;;;;33.91;19.34;101118.62;83793;1343;22598;-74
2022/09/03 08:44:47;;;;;;;11.10;1.80;;;;;;;34.01;19.28;101114.61;83823;1343;24238;-75
2022/09/03 08:47:00;;;;;;;2.90;1.60;;;;;;;34.25;19.06;101117.34;83812;1344;25664;-76
2022/09/03 08:49:10;;;;;;;5.20;1.80;;;;;;;34.40;18.51;101120.07;83790;1344;22623;-76
2022/09/03 08:51:20;;;;;;;4.20;1.70;;;;;;;34.35;17.19;101113.13;83827;1339;22761;-75
2022/09/03 08:53:34;;;;;;;2.90;1.60;;;;;;;34.22;18.03;101111.69;83803;1344;25574;-76
2022/09/03 08:56:05;;;;;;;2.20;1.30;;;;;;;34.40;17.76;101106.31;83792;1345;25502;-73
2022/09/03 08:58:17;;;;;;;2.30;1.10;;;;;;;34.53;17.63;101106.52;83606;1347;22776;-75
2022/09/03 09:00:27;;;;;;;1.60;1.50;;;;;;;34.70;17.54;101107.20;83712;1343;25566;-77
2022/09/03 09:02:44;;;;;;;2.90;2.10;;;;;;;34.86;17.48;101106.52;83709;1345;22639;-75
2022/09/03 09:05:05;;;;;;;2.10;1.70;;;;;;;34.83;16.88;101097.84;83695;1347;24010;-75
2022/09/03 09:07:24;;;;;;;2.10;1.50;;;;;;;34.74;16.52;101091.70;83663;1343;22656;-75
2022/09/03 09:09:36;;;;;;;6.30;1.60;;;;;;;34.71;17.60;101093.69;83705;1343;22652;-75
2022/09/03 09:11:56;;;;;;;4.40;1.80;;;;;;;34.75;16.98;101095.17;83699;1344;23929;-75
2022/09/03 09:14:14;;;;;;;4.80;1.70;;;;;;;34.73;16.91;101095.13;83695;1346;22724;-74
2022/09/03 09:16:31;;;;;;;5.00;1.40;;;;;;;34.83;16.90;101094.23;83700;1347;22616;-75
2022/09/03 09:19:04;;;;;;;1.70;1.20;;;;;;;34.71;16.65;101093.35;83581;1346;22628;-76
2022/09/03 09:21:20;;;;;;;2.80;1.70;;;;;;;34.61;16.19;101093.84;83655;1344;22595;-74
2022/09/03 09:23:48;;;;;;;3.40;1.30;;;;;;;34.53;16.19;101100.92;83149;1344;702332;-75
2022/09/03 09:26:01;;;;;;;3.50;1.40;;;;;;;34.33;16.03;101096.85;83827;1344;22682;-74
2022/09/03 09:28:17;;;;;;;2.80;1.40;;;;;;;34.26;16.22;101096.75;83830;1344;22775;-77
2022/09/03 09:30:29;;;;;;;2.50;1.60;;;;;;;34.30;16.41;101095.66;83913;1343;22676;-82
2022/09/03 09:32:39;;;;;;;6.30;2.10;;;;;;;34.10;16.07;101096.77;83874;1344;22618;-80
2022/09/03 09:34:50;;;;;;;1.80;1.20;;;;;;;33.80;16.30;101090.81;83896;1344;23831;-79
2022/09/03 09:37:02;;;;;;;2.70;1.50;;;;;;;33.29;16.96;101095.30;83843;1343;22682;-80
2022/09/03 09:39:14;;;;;;;3.10;2.00;;;;;;;32.82;17.00;101092.96;83759;1344;22618;-76
2022/09/03 09:41:24;;;;;;;3.20;2.00;;;;;;;32.24;17.79;101088.85;83769;1337;24299;-75
2022/09/03 09:47:37;;;;;;;3.10;1.20;;;;;;;30.96;18.56;101094.83;84249;1321;22609;-71
2022/09/03 09:49:56;;;;;;;4.60;1.30;;;;;;;30.49;18.74;101096.09;84112;1337;22616;-73
2022/09/03 09:52:08;;;;;;;2.10;1.20;;;;;;;29.82;19.05;101092.63;84041;1341;22602;-77
2022/09/03 09:54:20;;;;;;;2.50;1.50;;;;;;;29.24;20.00;101091.64;84025;1340;22661;-76
2022/09/03 09:56:29;;;;;;;2.50;1.20;;;;;;;28.76;20.21;101094.16;84044;1341;25671;-76
2022/09/03 09:58:39;;;;;;;6.10;1.20;;;;;;;28.28;20.74;101090.80;84040;1340;22660;-74
2022/09/03 10:00:55;;;;;;;;;;;;;;;27.84;20.74;101089.34;84053;1343;22608;-73
2022/09/03 10:03:06;;;;;;;2.10;1.30;;;;;;;27.42;21.91;101093.61;83736;1342;23981;-73
2022/09/03 10:05:22;;;;;;;1.60;0.90;;;;;;;27.11;21.91;101090.22;84099;1341;22590;-74
2022/09/03 10:07:31;;;;;;;3.40;1.10;;;;;;;26.85;22.52;101093.57;84121;1342;24309;-75
2022/09/03 10:09:44;;;;;;;5.60;1.40;;;;;;;26.73;22.79;101097.26;84060;1340;22652;-75
2022/09/03 10:12:09;;;;;;;1.60;1.10;;;;;;;26.59;22.70;101095.36;84098;1339;22655;-75
2022/09/03 10:14:22;;;;;;;7.10;2.40;;;;;;;26.46;23.16;101102.44;84136;1340;24203;-75
2022/09/03 10:16:36;;;;;;;5.40;1.40;;;;;;;26.26;22.79;101093.53;84062;1340;24270;-75
2022/09/03 10:18:47;;;;;;;7.20;3.30;;;;;;;26.11;23.72;101089.02;84135;1340;22610;-74
2022/09/03 10:21:02;;;;;;;2.80;1.30;;;;;;;26.04;23.66;101087.33;84172;1340;24249;-74